KGUP

Gallup Municipal Airport

Gallup, New Mexico, USA

KGUP 110853Z AUTO 00000KT 10SM CLR M14/M26 A3050 RMK AO2 SLP357 T11441261 58003

Observed Flight Rules
Dec-11 @ 08:53 UTC (42 minutes ago) Visual Flight Rules
Wind Visibility Clouds
Calm 10 miles
  • Clear skies
Temperatures Readings
Current -14°C / 7°F
Dewpoint -26°C / -15°F
Humidity 36%
Altimeter 30.5" Hg
Pressure 1035.7 hPa
Elevation 1971
Observed Flight Rules
Dec-11 @ 08:53 UTC
(42 minutes ago)
VFR
Wind Visibility
Calm 10 miles
Clouds
  • Clear skies
Temperature Dewpoint
-14°C / 7°F -26°C / -15°F
Humidity Altimeter Pressure
36% 30.5" Hg 1035.7 hPa